Time;durP1;ratioP1;P1;durP2;ratioP2;P2;SDS_P1;SDS_P2;PMS_P1;PMS_P2;Temp;Humidity;BMP_temperature;BMP_pressure;BME280_temperature;BME280_humidity;BME280_pressure;Samples;Min_cycle;Max_cycle;Signal;HPM_P1;HPM_P2
2021/06/23 00:02:20;;;;;;;13.67;12.10;;;18.80;95.70;;;;;;5072364;28;21027;-47
2021/06/23 00:04:48;;;;;;;9.53;8.63;;;18.70;95.60;;;;;;5068987;28;20728;-48
2021/06/23 00:07:15;;;;;;;14.90;13.57;;;18.70;95.70;;;;;;5071900;28;20668;-47
2021/06/23 00:09:42;;;;;;;13.70;12.40;;;18.70;95.80;;;;;;5071895;28;20632;-47
2021/06/23 00:12:15;;;;;;;14.00;12.33;;;18.70;95.80;;;;;;5071418;28;20686;-48
2021/06/23 00:14:43;;;;;;;14.30;12.23;;;18.70;95.70;;;;;;5069883;28;20731;-47
2021/06/23 00:17:10;;;;;;;12.07;11.03;;;18.70;95.80;;;;;;5071907;28;20779;-47
2021/06/23 00:19:37;;;;;;;13.03;11.83;;;18.80;95.80;;;;;;5063009;28;20618;-48
2021/06/23 00:22:05;;;;;;;11.07;10.17;;;18.80;95.60;;;;;;5052068;28;20626;-47
2021/06/23 00:24:32;;;;;;;10.70;9.70;;;18.80;95.60;;;;;;5051919;28;20625;-47
2021/06/23 00:26:59;;;;;;;11.10;10.00;;;18.70;95.60;;;;;;5063214;28;21025;-47
2021/06/23 00:29:28;;;;;;;12.13;10.90;;;18.70;95.70;;;;;;5071180;28;20706;-48
2021/06/23 00:31:55;;;;;;;11.37;8.40;;;18.70;95.90;;;;;;5072252;28;20675;-47
2021/06/23 00:34:23;;;;;;;12.60;9.67;;;18.80;96.00;;;;;;5070168;28;20698;-47
2021/06/23 00:36:50;;;;;;;14.87;10.53;;;19.20;95.90;;;;;;5070961;28;20701;-48
2021/06/23 00:39:17;;;;;;;10.20;9.40;;;19.20;95.50;;;;;;5071638;28;21042;-49
2021/06/23 00:41:44;;;;;;;10.83;9.33;;;19.10;95.40;;;;;;5065722;28;20633;-49
2021/06/23 00:44:12;;;;;;;11.50;10.50;;;19.00;95.30;;;;;;5072103;28;20961;-49
2021/06/23 00:46:41;;;;;;;16.37;9.87;;;18.90;95.30;;;;;;5071159;28;20680;-49
2021/06/23 00:49:08;;;;;;;11.20;10.20;;;19.00;95.60;;;;;;5053156;28;20642;-48
2021/06/23 00:51:35;;;;;;;12.00;10.90;;;18.90;95.60;;;;;;5051586;28;21271;-49
2021/06/23 00:54:04;;;;;;;12.83;11.50;;;18.90;95.60;;;;;;5091441;28;21017;-49
2021/06/23 00:56:32;;;;;;;11.63;10.60;;;19.00;95.60;;;;;;5083768;28;20669;-49
2021/06/23 00:59:00;;;;;;;11.40;10.50;;;19.30;95.50;;;;;;5070966;28;20679;-49
2021/06/23 01:01:27;;;;;;;11.03;10.07;;;19.50;95.50;;;;;;5067334;28;20626;-49
2021/06/23 01:03:55;;;;;;;12.70;9.90;;;19.50;94.50;;;;;;5051173;28;21123;-49
2021/06/23 01:06:23;;;;;;;15.43;11.03;;;19.40;94.40;;;;;;5058785;28;20746;-49
2021/06/23 01:08:50;;;;;;;11.40;10.40;;;19.20;94.30;;;;;;5070858;28;20632;-49
2021/06/23 01:11:17;;;;;;;12.77;11.07;;;19.10;94.50;;;;;;5070979;28;20682;-49
2021/06/23 01:13:55;;;;;;;12.93;11.73;;;19.00;94.80;;;;;;5071374;28;20687;-49
2021/06/23 01:16:22;;;;;;;17.10;11.43;;;18.80;94.90;;;;;;5068759;28;20702;-48
2021/06/23 01:18:49;;;;;;;16.40;12.70;;;18.80;95.20;;;;;;5071191;28;20666;-48
2021/06/23 01:21:18;;;;;;;15.83;11.27;;;18.70;95.10;;;;;;5071882;28;20633;-48
2021/06/23 01:23:46;;;;;;;14.70;13.17;;;18.70;95.60;;;;;;5071052;28;20682;-48
2021/06/23 01:26:14;;;;;;;13.60;11.17;;;18.70;95.40;;;;;;5068703;28;20657;-48
2021/06/23 01:28:41;;;;;;;12.03;11.03;;;18.70;95.30;;;;;;5069823;28;20683;-47
2021/06/23 01:31:08;;;;;;;12.90;11.07;;;18.70;95.40;;;;;;5069019;28;20632;-48
2021/06/23 01:33:37;;;;;;;13.13;10.43;;;18.60;95.40;;;;;;5070246;28;20698;-48
2021/06/23 01:36:06;;;;;;;10.57;9.57;;;18.60;95.40;;;;;;5064620;28;20630;-48
2021/06/23 01:38:33;;;;;;;11.90;10.60;;;18.60;95.40;;;;;;5070169;28;20609;-49
2021/06/23 01:41:01;;;;;;;11.50;10.50;;;18.70;95.50;;;;;;5070245;28;20907;-48
2021/06/23 01:43:29;;;;;;;11.70;10.60;;;18.70;95.60;;;;;;5070089;28;21225;-48
2021/06/23 01:45:56;;;;;;;11.30;10.10;;;18.80;95.60;;;;;;5063023;28;20705;-48
2021/06/23 01:48:25;;;;;;;10.33;9.43;;;18.80;95.40;;;;;;5049793;28;20658;-48
2021/06/23 01:50:54;;;;;;;11.23;10.13;;;18.70;95.20;;;;;;5054890;28;21123;-47
2021/06/23 01:53:21;;;;;;;11.90;10.80;;;18.70;95.30;;;;;;5070012;28;20670;-46
2021/06/23 01:55:49;;;;;;;14.27;11.20;;;18.60;95.20;;;;;;5070178;28;20637;-47
2021/06/23 01:58:18;;;;;;;14.90;11.00;;;18.60;95.30;;;;;;5069426;28;20645;-48
2021/06/23 02:00:49;;;;;;;29.33;12.53;;;18.50;95.30;;;;;;5060391;28;20676;-47
2021/06/23 02:03:18;;;;;;;12.23;11.03;;;18.40;95.30;;;;;;5050022;28;20634;-47
2021/06/23 02:05:54;;;;;;;11.20;10.20;;;18.40;95.50;;;;;;5050464;28;20641;-47
2021/06/23 02:08:31;;;;;;;11.17;10.07;;;18.40;95.70;;;;;;5068988;28;20749;-47
2021/06/23 02:11:03;;;;;;;12.00;10.97;;;18.40;95.60;;;;;;5069832;28;21206;-47
2021/06/23 02:14:03;;;;;;;11.80;10.80;;;18.40;95.60;;;;;;5069975;28;20633;-47
2021/06/23 02:16:32;;;;;;;12.07;10.90;;;18.30;95.60;;;;;;5055056;28;20649;-49
2021/06/23 02:19:02;;;;;;;13.63;12.03;;;18.20;95.60;;;;;;5069680;28;20698;-49
2021/06/23 02:21:29;;;;;;;11.83;10.73;;;18.20;95.60;;;;;;5070518;28;20621;-49
2021/06/23 02:23:57;;;;;;;11.80;10.60;;;18.20;95.80;;;;;;5070887;28;20667;-48
2021/06/23 02:26:24;;;;;;;11.40;10.20;;;18.20;95.80;;;;;;5070272;28;20690;-49
2021/06/23 02:28:51;;;;;;;12.50;11.20;;;18.20;95.80;;;;;;5070253;28;21063;-47
2021/06/23 02:31:19;;;;;;;10.50;9.50;;;18.20;95.80;;;;;;5060163;28;20671;-49
2021/06/23 02:33:47;;;;;;;11.23;10.33;;;18.10;95.80;;;;;;5049739;28;20630;-49
2021/06/23 02:36:14;;;;;;;11.83;10.23;;;18.10;95.90;;;;;;5050805;28;20687;-47
2021/06/23 02:38:42;;;;;;;11.73;9.10;;;18.00;96.00;;;;;;5069235;28;20625;-48
2021/06/23 02:41:09;;;;;;;11.60;10.60;;;18.00;96.20;;;;;;5069381;28;21042;-48
2021/06/23 02:43:36;;;;;;;11.90;10.43;;;18.10;96.40;;;;;;5070110;28;21149;-48
2021/06/23 02:46:03;;;;;;;10.80;8.87;;;18.10;96.40;;;;;;5058080;28;20629;-48
2021/06/23 02:48:30;;;;;;;10.77;9.67;;;18.10;96.40;;;;;;5069007;28;20652;-49
2021/06/23 02:51:00;;;;;;;9.90;8.90;;;18.20;96.40;;;;;;5069705;28;21181;-49
2021/06/23 02:53:28;;;;;;;12.60;10.50;;;18.10;96.10;;;;;;5069635;28;20628;-48
2021/06/23 02:55:56;;;;;;;9.80;9.00;;;18.10;96.20;;;;;;5068899;28;20669;-48
2021/06/23 02:58:23;;;;;;;10.60;9.37;;;18.10;96.30;;;;;;5068861;28;20613;-48
2021/06/23 03:00:51;;;;;;;11.20;10.10;;;18.10;96.50;;;;;;5051864;28;20652;-46
2021/06/23 03:03:18;;;;;;;11.37;10.03;;;18.20;96.30;;;;;;5049798;28;20696;-48
2021/06/23 03:05:46;;;;;;;10.27;9.37;;;18.20;96.20;;;;;;5049670;28;20633;-48
2021/06/23 03:08:14;;;;;;;11.83;9.67;;;18.10;96.20;;;;;;5065678;28;20758;-49
2021/06/23 03:10:41;;;;;;;11.20;10.00;;;18.10;96.00;;;;;;5069200;28;20665;-49
2021/06/23 03:13:09;;;;;;;9.07;8.30;;;18.10;96.20;;;;;;5069358;28;20747;-49
2021/06/23 03:15:36;;;;;;;11.77;9.93;;;18.10;96.20;;;;;;5052926;28;20703;-48
2021/06/23 03:18:04;;;;;;;15.27;10.93;;;18.10;96.30;;;;;;5068368;28;20641;-49
2021/06/23 03:20:31;;;;;;;11.20;10.10;;;18.10;96.50;;;;;;5053352;28;20687;-48
2021/06/23 03:22:58;;;;;;;10.40;9.60;;;18.10;96.50;;;;;;5053188;28;20714;-48
2021/06/23 03:25:27;;;;;;;11.07;9.47;;;18.00;96.40;;;;;;5052742;28;21047;-47
2021/06/23 03:27:54;;;;;;;10.57;8.70;;;18.00;96.40;;;;;;5065888;28;20653;-48
2021/06/23 03:30:23;;;;;;;17.50;10.87;;;18.00;96.60;;;;;;5055807;28;21191;-49
2021/06/23 03:32:50;;;;;;;9.87;9.00;;;18.10;96.60;;;;;;5072707;28;20633;-49
2021/06/23 03:35:21;;;;;;;11.53;9.50;;;18.00;96.50;;;;;;5071918;28;20983;-49
2021/06/23 03:37:49;;;;;;;10.07;8.60;;;18.10;96.70;;;;;;5065709;28;20676;-48
2021/06/23 03:40:16;;;;;;;15.67;9.77;;;18.10;96.50;;;;;;5072141;28;20690;-48
2021/06/23 03:42:45;;;;;;;11.17;10.17;;;18.20;96.60;;;;;;5071858;28;20709;-49
2021/06/23 03:45:13;;;;;;;10.77;9.70;;;18.20;96.50;;;;;;5052896;28;20696;-49
2021/06/23 03:47:40;;;;;;;9.83;8.90;;;18.10;96.50;;;;;;5063713;28;20697;-50
2021/06/23 03:50:08;;;;;;;11.87;9.10;;;18.10;96.60;;;;;;5072069;28;20625;-49
2021/06/23 03:52:36;;;;;;;12.53;10.40;;;18.10;96.70;;;;;;5072430;28;20990;-49
2021/06/23 03:55:03;;;;;;;10.70;9.80;;;18.10;96.70;;;;;;5072489;28;20656;-49
2021/06/23 03:57:31;;;;;;;10.47;9.67;;;18.20;96.70;;;;;;5069103;28;20695;-49
2021/06/23 03:59:59;;;;;;;11.57;9.30;;;18.10;96.60;;;;;;5063160;28;20629;-49
2021/06/23 04:02:27;;;;;;;9.10;8.07;;;18.10;96.60;;;;;;5072692;28;21241;-49
2021/06/23 04:04:54;;;;;;;10.77;9.87;;;18.20;96.60;;;;;;5072737;28;21066;-49
2021/06/23 04:07:21;;;;;;;10.53;9.17;;;18.20;96.60;;;;;;5071645;28;20664;-50
2021/06/23 04:09:48;;;;;;;10.63;9.03;;;18.20;96.60;;;;;;5071738;28;20667;-48
2021/06/23 04:12:15;;;;;;;10.00;9.03;;;18.20;96.60;;;;;;5071889;28;20633;-49
2021/06/23 04:14:42;;;;;;;9.47;8.60;;;18.30;96.50;;;;;;5071989;28;20636;-49
2021/06/23 04:17:11;;;;;;;14.77;12.07;;;18.30;96.40;;;;;;5063712;28;20830;-49
2021/06/23 04:19:38;;;;;;;10.80;9.87;;;18.30;96.40;;;;;;5071828;28;20977;-49
2021/06/23 04:22:05;;;;;;;9.53;8.67;;;18.40;96.30;;;;;;5071689;28;20686;-50
2021/06/23 04:24:33;;;;;;;9.23;8.30;;;18.30;96.30;;;;;;5072651;28;20770;-49
2021/06/23 04:27:00;;;;;;;16.10;10.00;;;18.40;96.30;;;;;;5071473;28;21216;-50
2021/06/23 04:29:27;;;;;;;10.23;9.27;;;18.40;96.40;;;;;;5069767;28;20653;-50
2021/06/23 04:31:54;;;;;;;9.63;7.97;;;18.50;96.30;;;;;;5071581;28;20629;-49
2021/06/23 04:34:23;;;;;;;11.80;9.47;;;18.60;96.00;;;;;;5071706;28;21230;-50
2021/06/23 04:36:50;;;;;;;10.00;9.07;;;18.60;96.00;;;;;;5055657;28;20688;-49
2021/06/23 04:39:17;;;;;;;11.17;9.17;;;18.50;96.00;;;;;;5055533;28;21169;-50
2021/06/23 04:41:45;;;;;;;10.20;9.20;;;18.60;96.10;;;;;;5071894;28;20633;-49
2021/06/23 04:44:12;;;;;;;11.33;8.50;;;18.80;96.00;;;;;;5071787;28;22276;-49
2021/06/23 04:46:39;;;;;;;9.47;8.50;;;18.90;95.80;;;;;;5066055;28;20670;-48
2021/06/23 04:49:06;;;;;;;9.77;8.47;;;18.90;95.70;;;;;;5051618;28;21014;-49
2021/06/23 04:51:35;;;;;;;13.00;8.83;;;18.90;95.60;;;;;;5051441;28;20676;-49
2021/06/23 04:54:02;;;;;;;12.10;8.70;;;18.90;95.70;;;;;;5083782;28;20673;-50
2021/06/23 04:56:29;;;;;;;10.20;9.20;;;18.80;95.70;;;;;;5071710;28;20665;-48
2021/06/23 04:58:58;;;;;;;16.23;9.77;;;18.80;95.80;;;;;;5059290;28;20626;-49
2021/06/23 05:01:25;;;;;;;15.30;9.40;;;18.70;95.80;;;;;;5060721;28;20694;-48
2021/06/23 05:03:53;;;;;;;11.93;9.83;;;18.70;95.90;;;;;;5063828;28;21008;-50
2021/06/23 05:06:20;;;;;;;10.23;9.17;;;18.60;95.90;;;;;;5067962;28;20680;-49
2021/06/23 05:08:48;;;;;;;10.90;8.60;;;18.60;96.20;;;;;;5051129;28;21276;-50
2021/06/23 05:11:16;;;;;;;9.17;8.37;;;18.50;96.40;;;;;;5060636;28;20682;-50
2021/06/23 05:13:43;;;;;;;9.33;8.50;;;18.50;96.50;;;;;;5070660;28;20621;-49
2021/06/23 05:16:10;;;;;;;16.90;10.63;;;18.50;96.60;;;;;;5066738;28;21177;-49
2021/06/23 05:18:37;;;;;;;10.40;8.90;;;18.60;96.60;;;;;;5070567;28;20671;-49
2021/06/23 05:21:05;;;;;;;12.20;10.27;;;18.60;96.60;;;;;;5071267;28;20647;-49
2021/06/23 05:23:35;;;;;;;10.37;9.43;;;18.60;96.60;;;;;;5070953;28;20673;-50
2021/06/23 05:26:04;;;;;;;11.67;9.30;;;18.60;96.60;;;;;;5069499;28;20625;-50
2021/06/23 05:28:31;;;;;;;11.20;9.00;;;18.60;96.70;;;;;;5070110;28;20688;-49
2021/06/23 05:30:58;;;;;;;12.27;10.37;;;18.60;96.70;;;;;;5065585;28;20626;-49
2021/06/23 05:33:25;;;;;;;11.23;9.67;;;18.60;96.60;;;;;;5050343;28;20625;-50
2021/06/23 05:35:52;;;;;;;12.33;9.20;;;18.60;96.70;;;;;;5063764;28;20667;-48
2021/06/23 05:38:20;;;;;;;9.97;9.07;;;18.70;96.70;;;;;;5069079;28;20645;-50
2021/06/23 05:40:47;;;;;;;11.17;9.87;;;18.90;96.40;;;;;;5068955;28;20628;-50
2021/06/23 05:43:16;;;;;;;12.83;9.40;;;19.20;96.10;;;;;;5070515;28;20757;-50
2021/06/23 05:45:43;;;;;;;11.30;9.77;;;19.40;95.80;;;;;;5069838;28;20703;-50
2021/06/23 05:48:10;;;;;;;9.87;8.97;;;19.30;95.70;;;;;;5069722;28;21064;-50
2021/06/23 05:50:39;;;;;;;13.53;8.20;;;19.30;95.80;;;;;;5070057;28;20751;-48
2021/06/23 05:53:06;;;;;;;12.70;8.87;;;19.20;95.80;;;;;;5070247;28;20672;-50
2021/06/23 05:55:33;;;;;;;11.70;9.43;;;19.20;95.90;;;;;;5069664;28;20625;-49
2021/06/23 05:58:01;;;;;;;10.87;8.90;;;19.20;96.00;;;;;;5069815;28;20752;-49
2021/06/23 06:00:29;;;;;;;14.20;9.33;;;19.00;96.10;;;;;;5070909;28;20740;-49
2021/06/23 06:02:57;;;;;;;11.43;9.77;;;19.00;96.20;;;;;;5070675;28;20621;-48
2021/06/23 06:05:25;;;;;;;13.97;10.20;;;18.90;96.20;;;;;;5071422;28;20633;-47
2021/06/23 06:07:52;;;;;;;10.63;9.73;;;18.90;96.30;;;;;;5071155;28;20723;-48
2021/06/23 06:10:20;;;;;;;10.43;9.50;;;18.90;96.40;;;;;;5070697;28;20783;-48
2021/06/23 06:12:47;;;;;;;12.67;10.67;;;18.90;96.40;;;;;;5072074;28;20625;-47
2021/06/23 06:15:16;;;;;;;10.90;9.50;;;18.90;96.40;;;;;;5070125;28;20645;-46
2021/06/23 06:17:44;;;;;;;14.07;9.37;;;19.00;96.50;;;;;;5070648;28;20653;-48
2021/06/23 06:20:13;;;;;;;14.27;9.27;;;18.90;96.50;;;;;;5070549;28;20633;-49
2021/06/23 06:22:40;;;;;;;13.30;10.50;;;18.90;96.60;;;;;;5070002;28;21029;-47
2021/06/23 06:25:08;;;;;;;10.83;9.90;;;18.90;96.60;;;;;;5069433;28;20706;-47
2021/06/23 06:27:35;;;;;;;10.23;9.30;;;18.90;96.80;;;;;;5069443;28;20672;-47
2021/06/23 06:30:03;;;;;;;11.30;10.30;;;18.90;97.00;;;;;;5069057;28;21257;-47
2021/06/23 06:32:30;;;;;;;13.17;9.73;;;18.90;97.00;;;;;;5069494;28;20694;-46
2021/06/23 06:34:59;;;;;;;13.00;9.60;;;18.80;96.90;;;;;;5069720;28;20694;-47
2021/06/23 06:37:26;;;;;;;10.67;9.70;;;18.90;97.00;;;;;;5069907;28;21259;-46
2021/06/23 06:39:53;;;;;;;11.47;9.60;;;18.90;96.90;;;;;;5069511;28;20625;-47
2021/06/23 06:42:21;;;;;;;11.10;10.00;;;18.90;96.90;;;;;;5070671;28;20625;-47
2021/06/23 06:44:48;;;;;;;11.77;10.03;;;18.90;97.00;;;;;;5070346;28;20706;-46
2021/06/23 06:47:15;;;;;;;15.80;8.50;;;19.00;96.90;;;;;;5070313;28;20653;-46
2021/06/23 06:49:42;;;;;;;14.13;8.23;;;19.10;96.80;;;;;;5073717;28;20660;-47
2021/06/23 06:52:11;;;;;;;15.67;9.80;;;19.20;96.60;;;;;;5076437;28;20686;-47
2021/06/23 06:54:38;;;;;;;9.67;8.73;;;19.30;96.30;;;;;;5076696;28;20689;-48
2021/06/23 06:57:06;;;;;;;11.50;10.40;;;19.30;96.20;;;;;;5076017;28;20718;-46
2021/06/23 06:59:33;;;;;;;9.50;8.70;;;19.20;96.40;;;;;;5076145;28;20628;-46
2021/06/23 07:02:00;;;;;;;13.20;9.20;;;19.10;96.50;;;;;;5076218;28;20696;-48
2021/06/23 07:04:28;;;;;;;10.73;9.70;;;19.10;96.70;;;;;;5076186;28;20633;-50
2021/06/23 07:06:55;;;;;;;10.60;9.70;;;19.10;96.70;;;;;;5076072;28;20660;-48
2021/06/23 07:09:24;;;;;;;14.40;9.63;;;19.10;96.80;;;;;;5075715;28;20691;-48
2021/06/23 07:11:51;;;;;;;10.73;9.63;;;19.00;96.90;;;;;;5075953;28;20629;-48
2021/06/23 07:14:19;;;;;;;9.77;8.87;;;19.00;96.90;;;;;;5075694;28;20624;-48
2021/06/23 07:16:46;;;;;;;10.13;9.13;;;19.00;97.10;;;;;;5075666;28;20649;-48
2021/06/23 07:19:14;;;;;;;9.63;8.70;;;19.00;97.30;;;;;;5075474;28;20625;-49
2021/06/23 07:21:41;;;;;;;9.43;8.53;;;19.10;97.20;;;;;;5075498;28;20625;-48
2021/06/23 07:24:09;;;;;;;9.87;8.97;;;19.20;97.30;;;;;;5075877;28;20637;-48
2021/06/23 07:26:37;;;;;;;10.23;9.23;;;19.30;97.10;;;;;;5075943;28;20640;-49
2021/06/23 07:29:06;;;;;;;10.87;9.87;;;19.40;96.90;;;;;;5075460;28;20682;-49
2021/06/23 07:31:40;;;;;;;9.37;8.57;;;19.40;96.70;;;;;;5075933;28;20633;-49
2021/06/23 07:34:34;;;;;;;11.37;10.23;;;19.50;96.70;;;;;;5076339;28;21012;-49
2021/06/23 07:37:03;;;;;;;9.43;8.60;;;19.60;96.60;;;;;;5075728;28;20653;-50
2021/06/23 07:39:31;;;;;;;10.90;9.90;;;19.60;96.50;;;;;;5075749;28;20616;-48
2021/06/23 07:41:59;;;;;;;11.37;10.23;;;19.60;96.40;;;;;;5076365;28;20682;-48
2021/06/23 07:44:30;;;;;;;13.00;8.97;;;19.60;96.50;;;;;;5075792;28;20625;-49
2021/06/23 07:46:59;;;;;;;9.93;9.00;;;19.70;96.50;;;;;;5076058;28;20747;-50
2021/06/23 07:49:28;;;;;;;10.10;8.97;;;19.70;96.50;;;;;;5076085;28;21129;-48
2021/06/23 07:52:00;;;;;;;11.10;10.10;;;19.80;96.40;;;;;;5076476;28;20695;-49
2021/06/23 07:54:40;;;;;;;8.57;7.83;;;19.90;96.10;;;;;;5076451;28;20682;-48
2021/06/23 08:08:30;;;;;;;12.73;8.70;;;20.80;94.80;;;;;;5072681;28;20645;-50
2021/06/23 08:11:00;;;;;;;8.67;7.87;;;20.90;94.60;;;;;;5072030;28;20668;-50
2021/06/23 08:13:28;;;;;;;7.93;7.10;;;21.00;94.40;;;;;;5072697;28;20951;-49
2021/06/23 08:15:56;;;;;;;9.80;8.00;;;21.40;93.60;;;;;;5072381;28;20633;-49
2021/06/23 08:18:23;;;;;;;9.77;8.90;;;21.50;93.10;;;;;;5072045;28;20621;-48
2021/06/23 08:20:50;;;;;;;7.80;7.20;;;21.50;93.20;;;;;;5072535;28;20670;-48
2021/06/23 08:23:18;;;;;;;10.37;8.90;;;21.50;92.90;;;;;;5071951;28;20621;-48
2021/06/23 08:25:45;;;;;;;8.77;8.00;;;21.80;92.40;;;;;;5072350;28;20686;-49
2021/06/23 08:28:12;;;;;;;16.30;9.80;;;21.90;92.20;;;;;;5071336;28;20706;-49
2021/06/23 08:30:41;;;;;;;13.03;8.40;;;21.90;92.20;;;;;;5071927;28;20668;-49
2021/06/23 08:33:08;;;;;;;11.03;10.13;;;21.80;92.60;;;;;;5071935;28;20621;-49
2021/06/23 08:35:35;;;;;;;9.23;8.53;;;21.60;92.70;;;;;;5072006;28;20659;-50
2021/06/23 08:38:03;;;;;;;8.70;8.10;;;21.50;93.10;;;;;;5071957;28;20653;-48
2021/06/23 08:40:30;;;;;;;10.03;7.77;;;21.40;93.50;;;;;;5079163;28;20616;-48
2021/06/23 08:42:57;;;;;;;9.40;8.37;;;21.30;93.70;;;;;;5092070;28;20644;-49
2021/06/23 08:45:25;;;;;;;10.90;8.90;;;21.30;93.80;;;;;;5092131;28;20623;-48
2021/06/23 08:47:53;;;;;;;12.73;7.80;;;21.40;93.80;;;;;;5091717;28;20716;-49
2021/06/23 08:50:22;;;;;;;10.57;9.40;;;21.50;94.00;;;;;;5091058;28;20660;-48
2021/06/23 08:52:49;;;;;;;9.80;8.93;;;21.50;93.80;;;;;;5092608;28;20660;-48
2021/06/23 08:55:19;;;;;;;12.13;8.13;;;21.50;93.50;;;;;;5091480;28;20632;-49
2021/06/23 08:57:48;;;;;;;11.63;7.23;;;21.60;93.70;;;;;;5091538;28;20653;-48
2021/06/23 09:00:16;;;;;;;9.77;8.77;;;21.70;93.50;;;;;;5091694;28;20646;-49
2021/06/23 09:02:44;;;;;;;10.83;9.83;;;21.70;93.40;;;;;;5091312;28;20632;-49
2021/06/23 09:05:14;;;;;;;10.63;9.73;;;21.70;93.40;;;;;;5091823;28;20681;-47
2021/06/23 09:07:44;;;;;;;9.70;8.77;;;21.60;93.40;;;;;;5091697;28;21308;-48
2021/06/23 09:10:34;;;;;;;8.80;8.17;;;21.50;93.30;;;;;;5079915;28;21076;-49
2021/06/23 09:13:17;;;;;;;10.70;9.80;;;21.40;93.70;;;;;;5070232;28;21200;-49
2021/06/23 09:15:48;;;;;;;9.97;9.00;;;21.30;93.60;;;;;;5071085;28;20706;-47
2021/06/23 09:18:17;;;;;;;9.37;8.63;;;21.30;94.40;;;;;;5070978;28;20684;-49
2021/06/23 09:20:45;;;;;;;7.73;7.03;;;21.40;94.20;;;;;;5070766;28;21170;-50
2021/06/23 09:23:13;;;;;;;9.30;8.37;;;21.60;93.30;;;;;;5071105;28;20617;-50
2021/06/23 09:25:44;;;;;;;8.80;7.97;;;21.70;93.50;;;;;;5070662;28;20698;-50
2021/06/23 09:28:17;;;;;;;9.20;8.23;;;21.60;93.90;;;;;;5071285;28;20656;-50
2021/06/23 09:30:44;;;;;;;8.73;7.77;;;21.70;93.80;;;;;;5075239;28;21081;-50
2021/06/23 09:33:18;;;;;;;7.87;7.27;;;21.70;93.90;;;;;;5092176;28;20635;-50
2021/06/23 09:35:48;;;;;;;9.23;8.53;;;21.80;93.80;;;;;;5090697;28;20664;-50
2021/06/23 09:38:52;;;;;;;9.40;8.50;;;21.80;93.70;;;;;;5090726;28;21231;-50
2021/06/23 09:41:24;;;;;;;7.90;7.37;;;21.90;93.20;;;;;;5051021;28;20625;-50
2021/06/23 09:43:53;;;;;;;7.70;7.00;;;22.10;92.80;;;;;;5050566;28;20682;-50
2021/06/23 09:46:24;;;;;;;7.37;6.33;;;22.20;92.70;;;;;;5050674;28;20724;-50
2021/06/23 09:49:03;;;;;;;8.37;7.67;;;22.20;92.60;;;;;;5050642;28;20634;-49
2021/06/23 09:51:39;;;;;;;9.30;8.50;;;22.20;92.90;;;;;;5049993;28;20650;-48
2021/06/23 09:54:07;;;;;;;8.30;7.60;;;22.50;91.40;;;;;;5078706;28;20685;-49
2021/06/23 09:56:37;;;;;;;8.97;8.13;;;22.70;91.00;;;;;;5090490;28;20699;-48
2021/06/23 09:59:05;;;;;;;7.90;7.30;;;22.70;91.70;;;;;;5090412;28;20686;-49
2021/06/23 10:01:38;;;;;;;7.20;6.57;;;22.70;92.00;;;;;;5090367;28;21265;-49
2021/06/23 10:04:08;;;;;;;7.83;7.23;;;22.70;91.50;;;;;;5090387;28;20624;-49
2021/06/23 10:06:37;;;;;;;7.37;6.87;;;22.80;91.30;;;;;;5090643;28;21255;-49
2021/06/23 10:09:23;;;;;;;8.57;7.87;;;22.90;91.40;;;;;;5088321;28;20629;-49
2021/06/23 10:11:52;;;;;;;10.13;9.13;;;23.20;90.10;;;;;;5070831;28;20649;-49
2021/06/23 10:14:20;;;;;;;8.40;7.80;;;23.20;90.70;;;;;;5069500;28;20633;-49
2021/06/23 10:16:48;;;;;;;9.20;8.50;;;23.00;90.90;;;;;;5069833;28;20714;-50
2021/06/23 10:19:15;;;;;;;10.47;8.60;;;22.90;91.20;;;;;;5069777;28;20633;-49
2021/06/23 10:21:44;;;;;;;8.43;7.83;;;22.80;91.30;;;;;;5069963;28;20671;-48
2021/06/23 10:24:12;;;;;;;9.90;7.33;;;22.70;91.50;;;;;;5069653;28;20617;-49
2021/06/23 10:26:40;;;;;;;8.63;7.80;;;22.90;90.80;;;;;;5070238;28;20668;-48
2021/06/23 10:29:08;;;;;;;8.30;7.60;;;22.90;91.20;;;;;;5069303;28;20629;-48
2021/06/23 10:31:35;;;;;;;9.80;9.10;;;22.80;91.20;;;;;;5069674;28;21298;-48
2021/06/23 10:34:02;;;;;;;8.80;8.20;;;22.60;91.20;;;;;;5070565;28;20702;-48
2021/06/23 10:36:30;;;;;;;9.20;8.60;;;22.50;91.50;;;;;;5069915;28;20726;-47
2021/06/23 10:38:58;;;;;;;9.17;8.57;;;22.50;92.00;;;;;;5070265;28;21224;-49
2021/06/23 10:41:26;;;;;;;10.00;9.30;;;22.60;92.00;;;;;;5067974;28;21231;-48
2021/06/23 10:44:14;;;;;;;8.93;8.43;;;22.70;91.90;;;;;;5069419;28;21248;-49
2021/06/23 10:46:41;;;;;;;10.43;9.73;;;22.70;91.60;;;;;;5064898;28;20660;-49
2021/06/23 10:49:10;;;;;;;9.30;8.60;;;22.70;91.60;;;;;;5069798;28;21025;-49
2021/06/23 10:51:40;;;;;;;8.67;7.97;;;22.70;91.40;;;;;;5070730;28;20653;-50
2021/06/23 10:54:40;;;;;;;11.30;10.30;;;22.70;91.60;;;;;;5070185;28;20694;-48
2021/06/23 10:57:28;;;;;;;9.77;8.87;;;22.80;91.80;;;;;;5069420;28;21213;-49
2021/06/23 10:59:55;;;;;;;8.07;7.27;;;22.80;91.70;;;;;;5070069;28;20686;-48
2021/06/23 11:02:34;;;;;;;9.60;8.80;;;22.90;91.00;;;;;;5069806;28;20613;-48
2021/06/23 11:05:12;;;;;;;8.40;7.73;;;23.10;91.10;;;;;;5069525;28;20617;-49
2021/06/23 11:07:43;;;;;;;7.67;7.07;;;23.10;90.80;;;;;;5068879;28;20688;-50
2021/06/23 11:10:30;;;;;;;8.33;7.70;;;23.20;90.90;;;;;;5068912;28;20691;-48
2021/06/23 11:13:02;;;;;;;7.80;7.20;;;23.30;90.20;;;;;;5068704;28;20672;-48
2021/06/23 11:15:38;;;;;;;8.33;7.73;;;23.40;90.20;;;;;;5069274;28;20634;-48
2021/06/23 11:18:20;;;;;;;8.33;7.57;;;23.50;90.20;;;;;;5069508;28;20722;-50
2021/06/23 11:20:48;;;;;;;7.47;6.90;;;23.60;89.70;;;;;;5069758;28;20632;-49
2021/06/23 11:23:41;;;;;;;8.97;8.17;;;23.70;89.70;;;;;;5070151;28;20625;-49
2021/06/23 11:26:08;;;;;;;7.50;6.90;;;23.70;89.10;;;;;;5069586;28;21004;-48
2021/06/23 11:28:37;;;;;;;8.70;7.93;;;23.70;88.80;;;;;;5067317;28;20678;-50
2021/06/23 11:31:07;;;;;;;9.10;8.30;;;23.70;88.90;;;;;;5069088;28;21172;-48
2021/06/23 11:33:58;;;;;;;7.03;6.53;;;23.70;88.70;;;;;;5069195;28;20628;-50
2021/06/23 11:36:25;;;;;;;6.43;5.40;;;23.90;87.10;;;;;;5055075;28;20661;-48
2021/06/23 11:38:53;;;;;;;6.70;6.20;;;24.30;84.80;;;;;;5070936;28;20694;-50
2021/06/23 11:41:21;;;;;;;5.53;5.13;;;24.40;85.10;;;;;;5072870;28;21138;-48
2021/06/23 11:43:50;;;;;;;7.47;6.87;;;24.50;83.90;;;;;;5072735;28;20617;-49
2021/06/23 11:46:17;;;;;;;4.50;4.10;;;24.40;82.00;;;;;;5071784;28;20647;-48
2021/06/23 11:48:44;;;;;;;6.83;6.23;;;24.30;81.50;;;;;;5072964;28;21254;-55
2021/06/23 11:51:12;;;;;;;6.13;5.60;;;24.20;82.40;;;;;;5073608;28;20703;-47
2021/06/23 11:53:40;;;;;;;5.47;5.07;;;24.30;82.90;;;;;;5072239;28;21177;-47
2021/06/23 11:56:08;;;;;;;5.23;4.83;;;24.50;83.10;;;;;;5072825;28;20698;-48
2021/06/23 11:58:35;;;;;;;5.43;5.03;;;24.70;82.20;;;;;;5073271;28;20633;-47
2021/06/23 12:01:04;;;;;;;5.03;4.63;;;24.80;81.20;;;;;;5073022;28;20621;-48
2021/06/23 12:03:31;;;;;;;6.37;5.87;;;25.10;79.20;;;;;;5073408;28;21055;-48
2021/06/23 12:05:59;;;;;;;5.23;4.93;;;25.20;79.30;;;;;;5073052;28;20652;-49
2021/06/23 12:08:26;;;;;;;5.10;4.70;;;25.30;78.50;;;;;;5072779;28;21003;-49
2021/06/23 12:10:54;;;;;;;7.97;5.43;;;25.40;76.80;;;;;;5072787;28;20628;-48
2021/06/23 12:13:22;;;;;;;5.60;5.20;;;25.30;76.20;;;;;;5072875;28;20727;-48
2021/06/23 12:15:51;;;;;;;4.77;4.43;;;25.20;76.50;;;;;;5071729;28;20676;-49
2021/06/23 12:18:21;;;;;;;4.17;3.77;;;25.20;77.00;;;;;;5072325;28;21030;-49
2021/06/23 12:20:48;;;;;;;5.83;4.17;;;25.00;75.20;;;;;;5072185;28;20621;-49
2021/06/23 12:23:15;;;;;;;5.20;3.60;;;24.80;74.30;;;;;;5072210;28;20652;-48
2021/06/23 12:25:43;;;;;;;4.43;4.10;;;24.70;74.90;;;;;;5072190;28;20653;-46
2021/06/23 12:28:14;;;;;;;3.53;3.27;;;24.70;74.40;;;;;;5072751;28;20641;-49
2021/06/23 12:30:42;;;;;;;3.00;2.77;;;24.80;74.80;;;;;;5073958;28;21230;-49
2021/06/23 12:33:11;;;;;;;2.80;2.60;;;24.90;74.00;;;;;;5092301;28;21081;-49
2021/06/23 12:35:40;;;;;;;2.70;2.50;;;25.10;74.60;;;;;;5092495;28;20700;-48
2021/06/23 12:38:08;;;;;;;4.27;3.97;;;25.20;72.80;;;;;;5092950;28;20676;-48
2021/06/23 12:40:35;;;;;;;3.90;3.60;;;25.30;72.90;;;;;;5077826;28;20633;-50
2021/06/23 12:43:02;;;;;;;3.77;3.50;;;25.30;73.00;;;;;;5072078;28;20672;-48
2021/06/23 12:45:30;;;;;;;4.10;3.70;;;25.20;73.40;;;;;;5071810;28;21161;-51
2021/06/23 12:47:57;;;;;;;4.03;3.73;;;25.30;74.20;;;;;;5071596;28;20657;-49
2021/06/23 12:50:24;;;;;;;5.03;4.70;;;25.30;73.90;;;;;;5071663;28;21080;-49
2021/06/23 12:52:53;;;;;;;4.20;3.90;;;25.30;73.00;;;;;;5071934;28;20761;-49
2021/06/23 12:55:20;;;;;;;4.13;3.60;;;25.30;73.10;;;;;;5071216;28;20613;-50
2021/06/23 12:57:47;;;;;;;3.30;3.10;;;25.40;72.90;;;;;;5071748;28;21076;-49
2021/06/23 13:00:16;;;;;;;4.97;4.60;;;25.40;72.30;;;;;;5071551;28;20698;-49